首页
METAR-TAF:

METAR-TAF

机场 :

都柏林机场

都柏林, 爱尔兰

纬度: 53-26N, 经度: 006-15W, 海拔: 68米

当前天气观测

该预报发布于37分钟前的08:30 UTC
风速10节,风向南转南东,在东转东南之间变化
温度 11°C
湿度 76%
气压 997 hPa
能见度10公里或以上
少量云层高于2000英尺, 积雨云.
散云层高于12000英尺

METAR: EIDW 170830Z 16010KT 120V190 9999 FEW020CB SCT120 11/07 Q0997 NOSIG

时间: 10:07 (09:07 UTC)

预报

该预报发布于1小时和31分钟前的07:36 UTC
预报有效从17日的 07点(UTC)到 18日的 06点(UTC)
风速7节,风向
能见度10公里或以上
少量云层高于2000英尺
短暂存在
从 17日的 07点(UTC)到 17日的 15点(UTC)
散云层高于2000英尺, 积雨云.
小阵雨
成为
从 17日的 08点(UTC)到 17日的 10点(UTC)
风速12节,风向
几率 40% :
短暂存在
从 17日的 11点(UTC)到 17日的 14点(UTC)
能見度: 4000
阵雨
几率 30% :
短暂存在
从 17日的 12点(UTC)到 17日的 15点(UTC)
风速15节,风向,有时为25节阵风
成为
从 17日的 16点(UTC)到 17日的 18点(UTC)
风速7节,风向
成为
从 17日的 22点(UTC)到 17日的 24点(UTC)
风速6节,风向南转西南

TAF: EIDW 170736Z 1707/1806 18007KT 9999 FEW020 TEMPO 1707/1715 -SHRA SCT020CB BECMG 1708/1710 19012KT PROB40 TEMPO 1711/1714 4000 SHRA PROB30 TEMPO 1712/1715 19015G25KT BECMG 1716/1718 17007KT BECMG 1722/1724 20006KT

超过4000个机场的气象观测和天气预报(METAR&TAF报告)。

可查询的气象台以黄色和红色小点在地图上表示。

将鼠标移到小点上方,可查看气象台名称。

然后点击查看天气观测和预报。

如需切换地图:点击带黑十字的绿色按钮放大地图;点击带横线的绿色按钮缩小地图;或者点击绿色箭头查看邻近地区的地图。


METAR-TAF: